Flight Track Log - Related Links

Times and Time Zones

All times are in EDT time to prevent confusion due to time zone crossing. See the ACA231 flight status page for this flight to view local times or setup timezone preferences in your user account.

Time Position Orientation Groundspeed Altitude Reporting Facility
EDT Latitude Longitude Course Direction KTS MPH feet Rate Location/Type
Wed 01:45:23 AM 51.1000 -114.0333 270° West 150 173 5,100  Level Edmonton Center
Wed 01:46:23 AM 51.1500 -114.0500 348° North 200 230 7,100 2,250 Climbing Edmonton Center
Wed 01:47:23 AM 51.1833 -114.1000 317° Northwest 240 276 9,600 2,800 Climbing Edmonton Center
Wed 01:48:00 AM 51.0572 -114.6875 262° West  Level FlightAware Approximate
Wed 01:48:23 AM 51.1667 -114.2167 257° West 280 322 12,700  Level Edmonton Center
Wed 01:49:00 AM 51.0391 -114.8539 259° West  Level FlightAware Approximate
Wed 01:49:23 AM 51.1500 -114.3500 259° West 300 345 15,900  Level Edmonton Center
Wed 01:50:00 AM 51.0333 -115.0218 270° West  Level FlightAware Approximate
Wed 01:50:23 AM 51.1333 -114.5000 260° West 320 368 18,500  Level Edmonton Center
Wed 01:51:23 AM 51.1000 -114.6333 248° West 340 391 21,200 2,300 Climbing Edmonton Center
Wed 01:52:23 AM 51.0667 -114.8167 254° West 370 426 23,100 2,000 Climbing Edmonton Center
Wed 01:53:23 AM 51.0500 -114.9667 260° West 380 437 25,200 2,050 Climbing Edmonton Center
Wed 01:54:23 AM 51.0167 -115.1500 254° West 390 449 27,200 1,850 Climbing Edmonton Center
Wed 01:55:23 AM 51.0000 -115.3167 261° West 400 460 28,900 1,734 Climbing Edmonton Center
Wed 01:56:31 AM 50.9833 -115.4667 260° West 410 472 30,900 1,875 Climbing Vancouver Center
Wed 01:57:31 AM 50.9500 -115.6167 251° West 410 472 32,900 1,800 Climbing Vancouver Center
Wed 01:58:31 AM 50.9167 -115.7833 252° West 410 472 34,500 1,500 Climbing Vancouver Center
Wed 01:59:31 AM 50.8833 -115.9833 255° West 410 472 35,900 744 Climbing Vancouver Center
Wed 02:00:32 AM 50.8333 -116.1500 245° Southwest 410 472 36,000 50 Climbing Vancouver Center
Wed 02:01:31 AM 50.8167 -116.3167 261° West 430 495 36,000  Level Vancouver Center
Wed 02:02:31 AM 50.7833 -116.5000 254° West 440 506 36,000  Level Vancouver Center
Wed 02:03:31 AM 50.7333 -116.7000 249° West 440 506 36,000  Level Vancouver Center
Wed 02:04:31 AM 50.7000 -116.8833 254° West 440 506 36,000  Level Vancouver Center
Wed 02:05:31 AM 50.6667 -117.0833 255° West 440 506 36,000  Level Vancouver Center
Wed 02:06:31 AM 50.6167 -117.2333 242° Southwest 440 506 36,000  Level Vancouver Center
Wed 02:07:31 AM 50.6000 -117.4333 263° West 430 495 36,000  Level Vancouver Center
Wed 02:08:31 AM 50.5667 -117.6167 254° West 440 506 36,000  Level Vancouver Center
Wed 02:09:31 AM 50.5167 -117.7833 245° Southwest 430 495 36,000  Level Vancouver Center
Wed 02:10:31 AM 50.4833 -117.9667 254° West 430 495 36,000  Level Vancouver Center
Wed 02:11:31 AM 50.4333 -118.1333 245° Southwest 430 495 36,000  Level Vancouver Center
Wed 02:12:31 AM 50.4000 -118.3167 254° West 440 506 36,000  Level Vancouver Center
Wed 02:13:31 AM 50.3500 -118.5167 249° West 430 495 36,000  Level Vancouver Center
Wed 02:14:31 AM 50.3167 -118.6667 251° West 430 495 36,000  Level Vancouver Center
Wed 02:15:31 AM 50.2833 -118.8500 254° West 430 495 36,000  Level Vancouver Center
Wed 02:16:31 AM 50.2333 -119.0167 245° Southwest 430 495 36,000  Level Vancouver Center
Wed 02:17:31 AM 50.2000 -119.2000 254° West 430 495 36,000  Level Vancouver Center
Wed 02:18:31 AM 50.1500 -119.4000 249° West 430 495 36,000  Level Vancouver Center
Wed 02:19:31 AM 50.1167 -119.5500 251° West 430 495 36,000  Level Vancouver Center
Wed 02:20:32 AM 50.0667 -119.7333 247° West 430 495 36,000  Level Vancouver Center
Wed 02:21:31 AM 50.0333 -119.9000 253° West 420 483 36,000  Level Vancouver Center
Wed 02:22:31 AM 50.0000 -120.0833 254° West 420 483 36,000  Level Vancouver Center
Wed 02:23:31 AM 49.9500 -120.2500 245° Southwest 420 483 36,000  Level Vancouver Center
Wed 02:24:31 AM 49.9167 -120.4000 251° West 410 472 36,000  Level Vancouver Center
Wed 02:25:32 AM 49.8833 -120.5667 253° West 410 472 36,000  Level Vancouver Center
Wed 02:26:31 AM 49.8333 -120.7167 243° Southwest 400 460 36,000  Level Vancouver Center
Wed 02:27:31 AM 49.7833 -120.9000 247° West 400 460 36,000 -50 Level Vancouver Center
Wed 02:28:31 AM 49.7500 -121.0667 253° West 410 472 35,900 -550 Descending Vancouver Center
Wed 02:29:31 AM 49.7167 -121.2167 251° West 410 472 34,900 -1,400 Descending Vancouver Center
Wed 02:30:31 AM 49.6833 -121.4000 254° West 410 472 33,100 -2,400 Descending Vancouver Center
Wed 02:31:31 AM 49.6333 -121.5500 243° Southwest 420 483 30,100 -2,700 Descending Vancouver Center
Wed 02:32:31 AM 49.5833 -121.7167 245° Southwest 420 483 27,700 -2,400 Descending Vancouver Center
Wed 02:33:31 AM 49.5500 -121.8667 251° West 400 460 25,300 -2,500 Descending Vancouver Center
Wed 02:34:31 AM 49.5167 -122.0500 254° West 390 449 22,700 -2,500 Descending Vancouver Center
Wed 02:35:31 AM 49.4500 -122.1833 232° Southwest 390 449 20,300 -2,430 Descending Vancouver Center
Wed 02:36:32 AM 49.4000 -122.3167 240° Southwest 380 437 17,800 -2,150 Descending Vancouver Center
Wed 02:37:31 AM 49.3500 -122.4333 237° Southwest 370 426 16,000 -2,017 Descending Vancouver Center
Wed 02:38:31 AM 49.3000 -122.5667 240° Southwest 360 414 13,800 -2,250 Descending Vancouver Center
Wed 02:39:31 AM 49.2500 -122.7333 245° Southwest 350 403 11,500 -1,550 Descending Vancouver Center
Wed 02:40:31 AM 49.2333 -122.8500 258° West 330 380 10,700 -700 Descending Vancouver Center
Wed 02:41:31 AM 49.2333 -122.9833 270° West 280 322 10,100 -500 Descending Vancouver Center
Wed 02:42:31 AM 49.2500 -123.0833 284° West 270 311 9,700 -1,250 Descending Vancouver Center
Wed 02:43:31 AM 49.2500 -123.1833 270° West 260 299 7,600 -2,000 Descending Vancouver Center
Wed 02:44:31 AM 49.2667 -123.2833 284° West 260 299 5,700 -1,835 Descending Vancouver Center
Wed 02:45:32 AM 49.2833 -123.3833 284° West 250 288 3,900 -1,150 Descending Vancouver Center
Wed 02:46:31 AM 49.2500 -123.4667 239° Southwest 240 276 3,400 -504 Descending Vancouver Center
Wed 02:47:31 AM 49.2000 -123.4167 147° Southeast 220 253 2,900 -750 Descending Vancouver Center
Wed 02:48:31 AM 49.1833 -123.3333 107° East 210 242 1,900 -1,000 Descending Vancouver Center

Login

Don't have an account? Register now (free) for customized features, flight alerts, and more!